Time;durP1;ratioP1;P1;durP2;ratioP2;P2;SDS_P1;SDS_P2;PMS_P1;PMS_P2;Temp;Humidity;BMP_temperature;BMP_pressure;BME280_temperature;BME280_humidity;BME280_pressure;Samples;Min_cycle;Max_cycle;Signal;HPM_P1;HPM_P2
2023/06/18 00:02:23;;;;;;;5.43;4.00;;;;;;;;;;5067476;28;20169;-75
2023/06/18 00:04:48;;;;;;;7.22;4.50;;;;;;;;;;5077160;28;20028;-76
2023/06/18 00:07:13;;;;;;;6.05;4.30;;;;;;;;;;5082220;28;20035;-75
2023/06/18 00:09:39;;;;;;;6.82;4.35;;;;;;;;;;5084361;28;20020;-77
2023/06/18 00:12:05;;;;;;;6.47;4.18;;;;;;;;;;5080637;28;20016;-76
2023/06/18 00:14:30;;;;;;;6.00;3.90;;;;;;;;;;5082410;28;20530;-76
2023/06/18 00:16:55;;;;;;;6.07;4.60;;;;;;;;;;5079887;28;20016;-76
2023/06/18 00:19:21;;;;;;;5.03;4.10;;;;;;;;;;5078636;28;20496;-75
2023/06/18 00:21:47;;;;;;;6.32;4.75;;;;;;;;;;5081349;28;20094;-75
2023/06/18 00:24:13;;;;;;;5.95;4.20;;;;;;;;;;5088743;28;20038;-75
2023/06/18 00:26:38;;;;;;;7.80;4.50;;;;;;;;;;5085836;28;20103;-75
2023/06/18 00:29:03;;;;;;;7.72;4.20;;;;;;;;;;5064817;28;20102;-75
2023/06/18 00:31:32;;;;;;;7.22;4.70;;;;;;;;;;5064169;28;20056;-76
2023/06/18 00:34:04;;;;;;;12.77;4.50;;;;;;;;;;5082408;28;20016;-75
2023/06/18 00:36:31;;;;;;;;;;;;;;;;;;5088944;28;20357;-75
2023/06/18 00:38:57;;;;;;;6.45;4.15;;;;;;;;;;5077087;28;19924;-75
2023/06/18 00:41:24;;;;;;;7.20;4.53;;;;;;;;;;5086284;28;20059;-75
2023/06/18 00:43:49;;;;;;;8.13;4.20;;;;;;;;;;5084296;28;20464;-74
2023/06/18 00:46:17;;;;;;;5.78;4.40;;;;;;;;;;5066249;28;20075;-75
2023/06/18 00:48:45;;;;;;;6.28;4.43;;;;;;;;;;5085541;28;20036;-75
2023/06/18 00:51:11;;;;;;;5.47;4.22;;;;;;;;;;5093210;28;20008;-75
2023/06/18 00:53:37;;;;;;;5.68;4.45;;;;;;;;;;5092925;28;20456;-75
2023/06/18 00:56:02;;;;;;;5.93;4.60;;;;;;;;;;5099171;28;20035;-75
2023/06/18 00:58:28;;;;;;;9.13;4.78;;;;;;;;;;5068202;28;20039;-75
2023/06/18 01:00:53;;;;;;;6.07;4.30;;;;;;;;;;5082457;28;20029;-76
2023/06/18 01:03:20;;;;;;;6.00;4.35;;;;;;;;;;5069508;28;20395;-75
2023/06/18 01:05:58;;;;;;;8.38;4.70;;;;;;;;;;5084112;28;20101;-75
2023/06/18 01:08:24;;;;;;;6.25;4.78;;;;;;;;;;5087268;28;20111;-75
2023/06/18 01:11:04;;;;;;;6.47;4.78;;;;;;;;;;5067819;28;20435;-75
2023/06/18 01:13:32;;;;;;;7.13;4.95;;;;;;;;;;5066428;28;20392;-74
2023/06/18 01:16:03;;;;;;;6.65;4.80;;;;;;;;;;5081327;28;20385;-75
2023/06/18 01:18:34;;;;;;;8.82;4.70;;;;;;;;;;5083720;28;20231;-75
2023/06/18 01:21:10;;;;;;;6.00;4.80;;;;;;;;;;5058000;28;20024;-74
2023/06/18 01:23:58;;;;;;;6.65;4.78;;;;;;;;;;5081697;28;20063;-75
2023/06/18 01:26:26;;;;;;;7.50;4.95;;;;;;;;;;5082262;28;20392;-75
2023/06/18 01:28:52;;;;;;;6.13;4.53;;;;;;;;;;5083353;28;20046;-75
2023/06/18 01:31:21;;;;;;;6.75;4.95;;;;;;;;;;5078831;28;20384;-75
2023/06/18 01:33:51;;;;;;;7.18;4.55;;;;;;;;;;5079337;28;20044;-75
2023/06/18 01:36:34;;;;;;;7.18;5.10;;;;;;;;;;5069256;28;20024;-75
2023/06/18 01:39:06;;;;;;;7.28;5.20;;;;;;;;;;5059968;28;20111;-75
2023/06/18 01:41:35;;;;;;;;;;;;;;;;;;5079275;28;20032;-75
2023/06/18 01:44:06;;;;;;;7.50;4.85;;;;;;;;;;5083831;28;20710;-75
2023/06/18 01:46:31;;;;;;;8.23;5.13;;;;;;;;;;5080098;28;20056;-75
2023/06/18 01:49:00;;;;;;;9.52;5.38;;;;;;;;;;5063672;28;20449;-75
2023/06/18 01:51:27;;;;;;;6.95;5.10;;;;;;;;;;5062843;28;20162;-74
2023/06/18 01:53:55;;;;;;;6.97;5.45;;;;;;;;;;5095523;28;20055;-74
2023/06/18 01:56:22;;;;;;;7.63;5.30;;;;;;;;;;5064834;28;20074;-75
2023/06/18 01:58:47;;;;;;;8.73;5.63;;;;;;;;;;5062448;28;20024;-74
2023/06/18 02:01:13;;;;;;;9.18;5.38;;;;;;;;;;5081700;28;20031;-76
2023/06/18 02:03:39;;;;;;;6.97;4.85;;;;;;;;;;5087153;28;20020;-75
2023/06/18 02:06:05;;;;;;;8.68;5.50;;;;;;;;;;5062566;28;20601;-75
2023/06/18 02:08:31;;;;;;;10.70;5.43;;;;;;;;;;5086073;28;20491;-75
2023/06/18 02:10:56;;;;;;;8.27;6.00;;;;;;;;;;5065919;28;20020;-75
2023/06/18 02:13:21;;;;;;;25.55;5.80;;;;;;;;;;5092835;28;20107;-75
2023/06/18 02:15:47;;;;;;;12.65;6.82;;;;;;;;;;5084331;28;20026;-75
2023/06/18 02:18:12;;;;;;;8.30;5.80;;;;;;;;;;5062362;28;20026;-75
2023/06/18 02:20:41;;;;;;;8.98;5.85;;;;;;;;;;5060848;28;20055;-75
2023/06/18 02:23:07;;;;;;;8.25;6.18;;;;;;;;;;5081613;28;20070;-75
2023/06/18 02:25:33;;;;;;;8.60;6.00;;;;;;;;;;5069164;28;20052;-74
2023/06/18 02:28:00;;;;;;;10.68;5.93;;;;;;;;;;5085627;28;20031;-75
2023/06/18 02:30:25;;;;;;;7.93;6.00;;;;;;;;;;5083114;28;20028;-75
2023/06/18 02:32:52;;;;;;;10.13;6.25;;;;;;;;;;5080673;28;20391;-75
2023/06/18 02:35:18;;;;;;;7.72;5.40;;;;;;;;;;5067814;28;20016;-75
2023/06/18 02:37:44;;;;;;;8.15;6.05;;;;;;;;;;5080156;28;20558;-74
2023/06/18 02:40:11;;;;;;;9.85;6.07;;;;;;;;;;5070403;28;20050;-75
2023/06/18 02:42:36;;;;;;;8.35;6.15;;;;;;;;;;5084024;28;20116;-75
2023/06/18 02:45:02;;;;;;;8.80;5.90;;;;;;;;;;5087476;28;20099;-75
2023/06/18 02:47:28;;;;;;;8.63;5.93;;;;;;;;;;5092288;28;20028;-75
2023/06/18 02:49:54;;;;;;;8.57;6.18;;;;;;;;;;5091005;28;20139;-74
2023/06/18 02:52:19;;;;;;;8.93;5.82;;;;;;;;;;5091987;28;20066;-75
2023/06/18 02:54:45;;;;;;;9.52;6.32;;;;;;;;;;5087442;28;20024;-75
2023/06/18 02:57:11;;;;;;;7.68;6.22;;;;;;;;;;5086558;28;20024;-75
2023/06/18 02:59:36;;;;;;;8.77;6.15;;;;;;;;;;5066073;28;20122;-75
2023/06/18 03:02:04;;;;;;;9.13;6.18;;;;;;;;;;5086940;28;20539;-75
2023/06/18 03:04:29;;;;;;;8.15;6.07;;;;;;;;;;5086301;28;20146;-75
2023/06/18 03:06:58;;;;;;;8.23;6.22;;;;;;;;;;5083603;28;20114;-75
2023/06/18 03:09:23;;;;;;;9.90;6.10;;;;;;;;;;5083985;28;20246;-75
2023/06/18 03:11:49;;;;;;;7.93;6.40;;;;;;;;;;5093998;28;20133;-75
2023/06/18 03:14:14;;;;;;;9.95;6.97;;;;;;;;;;5081986;28;20036;-75
2023/06/18 03:16:40;;;;;;;8.40;6.40;;;;;;;;;;5064542;28;20028;-75
2023/06/18 03:19:05;;;;;;;10.07;6.53;;;;;;;;;;5079932;28;20307;-75
2023/06/18 03:21:31;;;;;;;9.38;6.30;;;;;;;;;;5087862;28;20495;-75
2023/06/18 03:23:56;;;;;;;10.77;6.80;;;;;;;;;;5088200;28;20027;-75
2023/06/18 03:26:22;;;;;;;8.52;6.20;;;;;;;;;;5072509;28;20222;-74
2023/06/18 03:28:47;;;;;;;9.10;6.43;;;;;;;;;;5078242;28;20025;-74
2023/06/18 03:31:13;;;;;;;8.85;6.65;;;;;;;;;;5084124;28;20023;-75
2023/06/18 03:33:38;;;;;;;10.32;6.43;;;;;;;;;;5084237;28;20082;-75
2023/06/18 03:36:05;;;;;;;8.38;6.32;;;;;;;;;;5067552;28;20082;-75
2023/06/18 03:38:31;;;;;;;8.50;6.20;;;;;;;;;;5065809;28;20043;-76
2023/06/18 03:40:56;;;;;;;8.10;6.35;;;;;;;;;;5062793;28;20179;-74
2023/06/18 03:43:21;;;;;;;9.30;6.38;;;;;;;;;;5087312;28;20052;-75
2023/06/18 03:45:47;;;;;;;9.50;6.50;;;;;;;;;;5087348;28;20077;-75
2023/06/18 03:48:12;;;;;;;10.10;6.68;;;;;;;;;;5081354;28;20024;-75
2023/06/18 03:50:38;;;;;;;8.55;6.35;;;;;;;;;;5068635;28;20086;-75
2023/06/18 03:53:03;;;;;;;9.73;6.28;;;;;;;;;;5064301;28;20432;-75
2023/06/18 03:55:28;;;;;;;8.20;6.22;;;;;;;;;;5087295;28;20376;-75
2023/06/18 03:57:54;;;;;;;8.27;6.28;;;;;;;;;;5086214;28;20063;-75
2023/06/18 04:00:20;;;;;;;9.07;6.47;;;;;;;;;;5067639;28;20035;-74
2023/06/18 04:02:45;;;;;;;6.95;5.85;;;;;;;;;;5066925;28;20032;-75
2023/06/18 04:05:12;;;;;;;10.25;6.38;;;;;;;;;;5065749;28;20066;-75
2023/06/18 04:07:37;;;;;;;9.40;6.70;;;;;;;;;;5084611;28;20028;-75
2023/06/18 04:10:03;;;;;;;8.45;6.57;;;;;;;;;;5083518;28;20024;-75
2023/06/18 04:12:28;;;;;;;8.35;6.13;;;;;;;;;;5079334;28;20029;-75
2023/06/18 04:14:54;;;;;;;8.48;6.10;;;;;;;;;;5076064;28;20127;-74
2023/06/18 04:17:19;;;;;;;8.65;6.72;;;;;;;;;;5084397;28;20042;-75
2023/06/18 04:19:44;;;;;;;9.43;6.55;;;;;;;;;;5085754;28;20023;-75
2023/06/18 04:22:10;;;;;;;10.77;7.38;;;;;;;;;;5078075;28;20071;-74
2023/06/18 04:24:35;;;;;;;9.70;6.80;;;;;;;;;;5066181;28;20027;-75
2023/06/18 04:27:00;;;;;;;13.02;7.88;;;;;;;;;;5081555;28;20032;-74
2023/06/18 04:29:26;;;;;;;9.65;7.78;;;;;;;;;;5074827;28;20107;-75
2023/06/18 04:31:51;;;;;;;9.23;6.93;;;;;;;;;;5086121;28;20480;-75
2023/06/18 04:34:17;;;;;;;10.43;7.57;;;;;;;;;;5078991;28;20030;-75
2023/06/18 04:36:43;;;;;;;9.18;7.32;;;;;;;;;;5083804;28;20747;-75
2023/06/18 04:39:09;;;;;;;9.57;7.38;;;;;;;;;;5075995;28;20033;-75
2023/06/18 04:41:34;;;;;;;11.65;7.18;;;;;;;;;;5082555;28;20485;-75
2023/06/18 04:43:59;;;;;;;10.35;7.30;;;;;;;;;;5083792;28;20032;-75
2023/06/18 04:46:25;;;;;;;9.40;7.20;;;;;;;;;;5086123;28;20771;-75
2023/06/18 04:48:50;;;;;;;10.77;8.05;;;;;;;;;;5084518;28;20119;-75
2023/06/18 04:51:16;;;;;;;8.30;6.70;;;;;;;;;;5077543;28;20099;-75
2023/06/18 04:53:41;;;;;;;9.07;6.90;;;;;;;;;;5080981;28;20024;-75
2023/06/18 04:56:08;;;;;;;9.63;6.72;;;;;;;;;;5069216;28;20396;-75
2023/06/18 04:58:36;;;;;;;11.25;7.13;;;;;;;;;;5087098;28;20393;-74
2023/06/18 05:01:02;;;;;;;11.13;7.97;;;;;;;;;;5064605;28;20054;-75
2023/06/18 05:03:28;;;;;;;9.95;6.90;;;;;;;;;;5071150;28;20032;-74
2023/06/18 05:05:53;;;;;;;10.75;7.65;;;;;;;;;;5089108;28;20459;-75
2023/06/18 05:08:19;;;;;;;10.43;7.97;;;;;;;;;;5092843;28;20081;-75
2023/06/18 05:10:44;;;;;;;10.52;7.97;;;;;;;;;;5069649;28;20039;-74
2023/06/18 05:13:09;;;;;;;10.30;7.60;;;;;;;;;;5081766;28;20021;-76
2023/06/18 05:15:35;;;;;;;9.57;7.68;;;;;;;;;;5061028;28;20027;-74
2023/06/18 05:18:00;;;;;;;12.52;9.05;;;;;;;;;;5078936;28;20096;-75
2023/06/18 05:20:25;;;;;;;10.52;7.82;;;;;;;;;;5060037;28;20042;-75
2023/06/18 05:22:51;;;;;;;9.57;7.85;;;;;;;;;;5065224;28;20020;-75
2023/06/18 05:25:16;;;;;;;9.98;8.10;;;;;;;;;;5065879;28;20032;-76
2023/06/18 05:27:42;;;;;;;14.38;8.98;;;;;;;;;;5077470;28;20032;-76
2023/06/18 05:30:07;;;;;;;11.82;8.68;;;;;;;;;;5065061;28;20380;-75
2023/06/18 05:32:33;;;;;;;12.10;8.60;;;;;;;;;;5079863;28;20656;-75
2023/06/18 05:34:59;;;;;;;11.90;9.32;;;;;;;;;;5080148;28;20024;-75
2023/06/18 05:37:25;;;;;;;12.05;9.02;;;;;;;;;;5084156;28;20234;-75
2023/06/18 05:39:53;;;;;;;12.57;9.57;;;;;;;;;;5065933;28;20546;-75
2023/06/18 05:42:19;;;;;;;13.45;9.32;;;;;;;;;;5085174;28;20115;-74
2023/06/18 05:44:44;;;;;;;11.02;8.88;;;;;;;;;;5071286;28;20139;-75
2023/06/18 05:47:10;;;;;;;12.27;9.10;;;;;;;;;;5086081;28;20031;-75
2023/06/18 05:49:35;;;;;;;12.75;9.32;;;;;;;;;;5083660;28;20388;-76
2023/06/18 05:52:00;;;;;;;13.00;8.85;;;;;;;;;;5085047;28;20380;-76
2023/06/18 05:54:26;;;;;;;12.73;9.52;;;;;;;;;;5084738;28;20067;-75
2023/06/18 05:56:51;;;;;;;11.52;8.63;;;;;;;;;;5073596;28;20031;-75
2023/06/18 05:59:17;;;;;;;14.35;9.70;;;;;;;;;;5079199;28;20029;-76
2023/06/18 06:01:43;;;;;;;12.77;9.50;;;;;;;;;;5075479;28;20176;-75
2023/06/18 06:04:08;;;;;;;11.73;9.48;;;;;;;;;;5082947;28;20077;-75
2023/06/18 06:06:34;;;;;;;14.25;9.82;;;;;;;;;;5081064;28;20035;-75
2023/06/18 06:09:00;;;;;;;10.32;8.35;;;;;;;;;;5080666;28;20361;-74
2023/06/18 06:11:25;;;;;;;12.13;9.40;;;;;;;;;;5080851;28;20583;-75
2023/06/18 06:13:51;;;;;;;14.05;8.88;;;;;;;;;;5076767;28;20016;-76
2023/06/18 06:16:16;;;;;;;12.18;8.93;;;;;;;;;;5074562;28;20499;-75
2023/06/18 06:18:42;;;;;;;11.85;9.38;;;;;;;;;;5077973;28;20495;-75
2023/06/18 06:21:07;;;;;;;13.35;8.70;;;;;;;;;;5061050;28;20024;-75
2023/06/18 06:23:33;;;;;;;10.38;8.50;;;;;;;;;;5086746;28;20035;-75
2023/06/18 06:25:58;;;;;;;10.80;7.97;;;;;;;;;;5081376;28;20166;-75
2023/06/18 06:28:23;;;;;;;11.88;8.60;;;;;;;;;;5067276;28;20595;-75
2023/06/18 06:30:49;;;;;;;11.27;8.52;;;;;;;;;;5077019;28;20037;-76
2023/06/18 06:33:14;;;;;;;9.85;7.90;;;;;;;;;;5057289;28;20449;-74
2023/06/18 06:35:40;;;;;;;13.60;8.73;;;;;;;;;;5059978;28;20028;-76
2023/06/18 06:38:05;;;;;;;9.30;7.50;;;;;;;;;;5059657;28;20197;-75
2023/06/18 06:40:30;;;;;;;11.07;8.43;;;;;;;;;;5065055;28;20377;-75
2023/06/18 06:42:56;;;;;;;10.77;7.93;;;;;;;;;;5073532;28;20028;-75
2023/06/18 06:45:21;;;;;;;10.85;8.10;;;;;;;;;;5077891;28;20119;-75
2023/06/18 06:47:48;;;;;;;12.98;8.18;;;;;;;;;;5084149;28;20032;-75
2023/06/18 06:50:14;;;;;;;11.55;8.10;;;;;;;;;;5065013;28;20047;-75
2023/06/18 06:52:39;;;;;;;16.23;8.10;;;;;;;;;;5081355;28;20034;-75
2023/06/18 06:55:06;;;;;;;11.02;8.40;;;;;;;;;;5073337;28;20068;-75
2023/06/18 06:57:31;;;;;;;10.15;7.97;;;;;;;;;;5083549;28;20481;-74
2023/06/18 06:59:57;;;;;;;11.07;8.23;;;;;;;;;;5086155;28;20349;-74
2023/06/18 07:02:22;;;;;;;10.05;7.10;;;;;;;;;;5075340;28;20025;-75
2023/06/18 07:04:48;;;;;;;10.73;7.20;;;;;;;;;;5077638;28;20033;-74
2023/06/18 07:07:16;;;;;;;10.02;7.32;;;;;;;;;;5077209;28;20024;-75
2023/06/18 07:09:41;;;;;;;14.68;8.90;;;;;;;;;;5066500;28;20035;-75
2023/06/18 07:12:07;;;;;;;14.10;9.80;;;;;;;;;;5080081;28;20021;-76
2023/06/18 07:14:32;;;;;;;15.70;10.27;;;;;;;;;;5057960;28;20052;-74
2023/06/18 07:16:58;;;;;;;12.77;9.23;;;;;;;;;;5061017;28;20051;-75
2023/06/18 07:19:24;;;;;;;13.38;9.15;;;;;;;;;;5078992;28;20026;-74
2023/06/18 07:21:50;;;;;;;16.05;10.90;;;;;;;;;;5059507;28;21721;-74
2023/06/18 07:24:16;;;;;;;10.52;7.45;;;;;;;;;;5063287;28;20044;-74
2023/06/18 07:26:41;;;;;;;17.92;10.60;;;;;;;;;;5087829;28;20067;-74
2023/06/18 07:29:07;;;;;;;13.23;11.00;;;;;;;;;;5075689;28;20036;-75
2023/06/18 07:31:32;;;;;;;14.30;11.05;;;;;;;;;;5078333;28;20023;-75
2023/06/18 07:33:58;;;;;;;14.48;9.73;;;;;;;;;;5073386;28;20616;-75
2023/06/18 07:36:23;;;;;;;12.00;9.52;;;;;;;;;;5081378;28;20514;-74
2023/06/18 07:38:48;;;;;;;12.13;9.38;;;;;;;;;;5063037;28;20034;-76
2023/06/18 07:41:14;;;;;;;11.50;9.20;;;;;;;;;;5076193;28;20088;-74
2023/06/18 07:43:40;;;;;;;14.63;10.85;;;;;;;;;;5078968;28;20062;-74
2023/06/18 07:46:06;;;;;;;13.07;10.52;;;;;;;;;;5082222;28;20028;-75
2023/06/18 07:48:32;;;;;;;12.15;10.13;;;;;;;;;;5068413;28;20027;-74
2023/06/18 07:50:57;;;;;;;11.48;9.60;;;;;;;;;;5081243;28;20368;-75
2023/06/18 07:53:23;;;;;;;12.38;10.13;;;;;;;;;;5082583;28;20449;-73
2023/06/18 07:55:48;;;;;;;11.48;9.23;;;;;;;;;;5090596;28;20085;-73
2023/06/18 07:58:13;;;;;;;13.23;8.90;;;;;;;;;;5068237;28;20040;-73
2023/06/18 08:00:39;;;;;;;12.88;9.10;;;;;;;;;;5079985;28;20028;-75
2023/06/18 08:03:04;;;;;;;12.68;9.80;;;;;;;;;;5076372;28;20032;-75
2023/06/18 08:05:29;;;;;;;11.45;8.98;;;;;;;;;;5082378;28;20023;-76
2023/06/18 08:07:55;;;;;;;11.23;8.50;;;;;;;;;;5077019;28;20751;-76
2023/06/18 08:10:20;;;;;;;11.15;8.05;;;;;;;;;;5079375;28;20536;-76
2023/06/18 08:12:46;;;;;;;9.50;6.63;;;;;;;;;;5074493;28;20024;-76
2023/06/18 08:15:11;;;;;;;8.98;7.15;;;;;;;;;;5073542;28;20081;-75
2023/06/18 08:17:36;;;;;;;9.75;7.00;;;;;;;;;;5065871;28;20036;-76
2023/06/18 08:20:02;;;;;;;10.50;6.40;;;;;;;;;;5083703;28;20031;-77
2023/06/18 08:22:28;;;;;;;7.95;6.63;;;;;;;;;;5079208;28;20027;-76
2023/06/18 08:24:53;;;;;;;7.60;6.38;;;;;;;;;;5088776;28;20031;-76
2023/06/18 08:27:19;;;;;;;9.75;6.50;;;;;;;;;;5066812;28;20380;-76
2023/06/18 08:29:44;;;;;;;8.82;6.25;;;;;;;;;;5079868;28;20073;-76
2023/06/18 08:32:10;;;;;;;8.98;6.78;;;;;;;;;;5092946;28;20017;-79
2023/06/18 08:34:42;;;;;;;8.13;6.53;;;;;;;;;;5082181;28;20471;-77
2023/06/18 08:37:07;;;;;;;9.80;6.97;;;;;;;;;;5084479;28;20016;-78
2023/06/18 08:39:33;;;;;;;8.23;6.03;;;;;;;;;;5099015;28;20039;-78
2023/06/18 08:42:01;;;;;;;12.45;6.45;;;;;;;;;;5084906;28;20036;-77
2023/06/18 08:44:29;;;;;;;8.57;6.35;;;;;;;;;;5103176;28;20020;-79
2023/06/18 08:47:03;;;;;;;7.85;5.53;;;;;;;;;;5094418;28;20024;-79
2023/06/18 08:49:29;;;;;;;9.38;5.78;;;;;;;;;;5095082;28;20054;-79
2023/06/18 08:51:56;;;;;;;8.40;5.53;;;;;;;;;;5084628;28;20052;-77
2023/06/18 08:56:57;;;;;;;9.30;6.57;;;;;;;;;;5052964;28;20092;-79
2023/06/18 08:59:23;;;;;;;9.20;6.53;;;;;;;;;;5059008;28;20020;-80
2023/06/18 09:01:49;;;;;;;8.45;5.80;;;;;;;;;;5059400;28;20033;-78
2023/06/18 09:04:15;;;;;;;7.30;5.95;;;;;;;;;;5046370;28;20039;-76
2023/06/18 09:06:42;;;;;;;7.55;5.70;;;;;;;;;;5057813;28;20030;-77
2023/06/18 09:09:08;;;;;;;8.82;6.68;;;;;;;;;;5055729;28;20056;-79
2023/06/18 09:11:33;;;;;;;12.10;6.80;;;;;;;;;;5061361;28;20032;-76
2023/06/18 09:13:59;;;;;;;7.10;6.20;;;;;;;;;;5051247;28;20032;-80
2023/06/18 09:16:24;;;;;;;7.65;6.43;;;;;;;;;;5071925;28;20037;-80
2023/06/18 09:18:50;;;;;;;7.72;6.18;;;;;;;;;;5059821;28;20033;-76
2023/06/18 09:21:38;;;;;;;8.02;5.68;;;;;;;;;;5059629;28;20024;-79
2023/06/18 09:24:09;;;;;;;8.10;5.95;;;;;;;;;;5043961;28;20017;-77
2023/06/18 09:26:35;;;;;;;8.38;5.70;;;;;;;;;;5046351;28;20031;-76
2023/06/18 09:29:05;;;;;;;7.47;6.10;;;;;;;;;;5048693;28;20010;-78
2023/06/18 09:31:31;;;;;;;6.03;5.40;;;;;;;;;;5044961;28;20024;-78
2023/06/18 09:33:56;;;;;;;9.13;5.93;;;;;;;;;;5047898;28;20067;-79
2023/06/18 09:36:25;;;;;;;9.07;5.72;;;;;;;;;;5032419;28;20033;-77
2023/06/18 09:38:53;;;;;;;6.30;4.70;;;;;;;;;;5048319;28;20029;-78
2023/06/18 09:41:18;;;;;;;7.15;5.15;;;;;;;;;;5042805;28;20033;-80
2023/06/18 09:43:48;;;;;;;6.35;4.90;;;;;;;;;;5044390;28;20103;-76
2023/06/18 09:46:14;;;;;;;6.32;5.32;;;;;;;;;;5032815;28;20359;-75
2023/06/18 09:48:42;;;;;;;6.80;5.38;;;;;;;;;;5018026;28;20024;-76
2023/06/18 09:51:07;;;;;;;5.78;5.10;;;;;;;;;;5038228;28;20104;-75
2023/06/18 09:53:33;;;;;;;8.60;5.82;;;;;;;;;;5011570;28;20116;-76
2023/06/18 09:56:16;;;;;;;9.18;5.68;;;;;;;;;;5004714;28;20084;-76
2023/06/18 09:58:44;;;;;;;8.38;4.97;;;;;;;;;;5028179;28;20063;-76
2023/06/18 10:01:10;;;;;;;7.05;5.50;;;;;;;;;;5009814;28;20036;-76
2023/06/18 10:03:36;;;;;;;7.82;5.28;;;;;;;;;;5013518;28;20025;-75
2023/06/18 10:06:22;;;;;;;6.30;5.30;;;;;;;;;;5021213;28;20026;-76
2023/06/18 10:08:50;;;;;;;7.45;5.55;;;;;;;;;;5028184;28;20789;-75
2023/06/18 10:11:17;;;;;;;7.10;5.30;;;;;;;;;;5021604;28;20037;-75
2023/06/18 10:13:50;;;;;;;7.63;5.70;;;;;;;;;;5008940;28;20021;-75
2023/06/18 10:16:17;;;;;;;8.38;5.10;;;;;;;;;;5026746;28;20501;-74
2023/06/18 10:19:17;;;;;;;6.72;5.07;;;;;;;;;;5029857;28;20437;-74
2023/06/18 10:22:14;;;;;;;7.18;4.97;;;;;;;;;;5021374;28;20036;-75
2023/06/18 10:24:43;;;;;;;6.50;4.95;;;;;;;;;;4998555;28;20045;-75
2023/06/18 10:27:08;;;;;;;7.22;4.90;;;;;;;;;;5033611;28;20029;-74
2023/06/18 10:29:34;;;;;;;7.70;5.25;;;;;;;;;;5010525;28;20493;-74
2023/06/18 10:32:04;;;;;;;8.50;4.90;;;;;;;;;;5017869;28;20053;-77
2023/06/18 10:34:31;;;;;;;6.40;5.07;;;;;;;;;;5021142;28;20482;-75
2023/06/18 10:36:58;;;;;;;6.25;5.10;;;;;;;;;;5018734;28;20044;-77
2023/06/18 10:39:24;;;;;;;9.18;4.93;;;;;;;;;;5010533;28;20555;-75
2023/06/18 10:41:52;;;;;;;6.65;5.20;;;;;;;;;;5023295;28;20042;-77
2023/06/18 10:44:31;;;;;;;6.57;4.88;;;;;;;;;;5008832;28;20032;-76
2023/06/18 10:47:22;;;;;;;6.68;5.45;;;;;;;;;;5020212;28;20032;-75
2023/06/18 10:50:02;;;;;;;6.60;4.95;;;;;;;;;;5015837;28;20041;-75
2023/06/18 10:52:38;;;;;;;6.45;5.10;;;;;;;;;;5021482;28;20030;-75
2023/06/18 10:55:15;;;;;;;6.15;5.22;;;;;;;;;;5024694;28;20508;-75
2023/06/18 10:57:41;;;;;;;7.22;5.55;;;;;;;;;;5026680;28;20084;-75
2023/06/18 11:00:29;;;;;;;6.90;5.55;;;;;;;;;;5025007;28;20029;-75
2023/06/18 11:03:14;;;;;;;5.00;4.40;;;;;;;;;;5024129;28;20042;-76
2023/06/18 11:06:00;;;;;;;7.20;4.70;;;;;;;;;;5008425;28;20033;-76
2023/06/18 11:08:32;;;;;;;5.93;4.55;;;;;;;;;;5007605;28;20505;-75
2023/06/18 11:11:00;;;;;;;6.95;4.90;;;;;;;;;;5022496;28;20038;-75
2023/06/18 11:13:31;;;;;;;6.07;5.30;;;;;;;;;;5023585;28;20064;-75
2023/06/18 11:16:06;;;;;;;5.90;4.95;;;;;;;;;;5009196;28;20033;-76
2023/06/18 11:18:33;;;;;;;6.63;5.05;;;;;;;;;;5023067;28;20083;-76
2023/06/18 11:20:59;;;;;;;7.38;5.40;;;;;;;;;;5006353;28;20111;-75
2023/06/18 11:23:26;;;;;;;8.18;5.00;;;;;;;;;;5012733;28;20450;-75
2023/06/18 11:25:53;;;;;;;6.18;5.03;;;;;;;;;;5023775;28;20044;-76
2023/06/18 11:28:20;;;;;;;7.00;5.30;;;;;;;;;;5002873;28;20173;-75
2023/06/18 11:30:48;;;;;;;6.22;4.80;;;;;;;;;;5007383;28;20432;-75
2023/06/18 11:33:13;;;;;;;5.85;5.00;;;;;;;;;;5005806;28;20063;-75
2023/06/18 11:35:39;;;;;;;6.78;5.25;;;;;;;;;;5026176;28;20033;-76
2023/06/18 11:38:04;;;;;;;6.90;5.10;;;;;;;;;;5024559;28;20385;-76
2023/06/18 11:40:30;;;;;;;6.72;5.18;;;;;;;;;;5023046;28;20037;-75
2023/06/18 11:42:55;;;;;;;6.07;5.10;;;;;;;;;;5026435;28;20036;-76
2023/06/18 11:45:21;;;;;;;6.65;4.97;;;;;;;;;;5001157;28;20155;-74
2023/06/18 11:47:49;;;;;;;5.93;5.00;;;;;;;;;;5027435;28;20064;-75
2023/06/18 11:50:16;;;;;;;7.47;5.32;;;;;;;;;;5023782;28;20025;-74
2023/06/18 11:52:43;;;;;;;6.05;5.00;;;;;;;;;;5031635;28;20021;-74
2023/06/18 11:55:08;;;;;;;6.75;5.20;;;;;;;;;;5036155;28;20025;-74
2023/06/18 11:57:34;;;;;;;5.72;4.40;;;;;;;;;;5034601;28;20295;-74
2023/06/18 12:00:00;;;;;;;5.65;4.57;;;;;;;;;;5023696;28;20018;-74
2023/06/18 12:02:27;;;;;;;6.75;5.20;;;;;;;;;;5031004;28;20434;-74
2023/06/18 12:04:57;;;;;;;6.13;4.63;;;;;;;;;;5036730;28;20029;-74
2023/06/18 12:07:25;;;;;;;6.60;4.88;;;;;;;;;;5032060;28;20512;-74
2023/06/18 12:09:52;;;;;;;7.35;5.20;;;;;;;;;;5028414;28;20029;-74
2023/06/18 12:12:18;;;;;;;6.78;5.00;;;;;;;;;;5029250;28;20021;-74
2023/06/18 12:14:57;;;;;;;6.63;5.35;;;;;;;;;;5017164;28;20025;-74
2023/06/18 12:17:37;;;;;;;5.88;5.10;;;;;;;;;;5032130;28;20375;-74
2023/06/18 12:20:10;;;;;;;5.40;4.70;;;;;;;;;;5030773;28;20029;-74
2023/06/18 12:22:36;;;;;;;;;;;;;;;;;;5016074;28;20036;-74
2023/06/18 12:25:01;;;;;;;5.95;4.47;;;;;;;;;;5020996;28;19913;-74
2023/06/18 12:27:27;;;;;;;5.85;5.00;;;;;;;;;;5032079;28;20033;-74
2023/06/18 12:29:57;;;;;;;7.63;5.00;;;;;;;;;;5036508;28;20033;-74
2023/06/18 12:32:22;;;;;;;6.25;4.90;;;;;;;;;;5036256;28;20490;-74
2023/06/18 12:34:48;;;;;;;5.22;4.70;;;;;;;;;;5029975;28;20025;-74
2023/06/18 12:37:14;;;;;;;7.07;5.63;;;;;;;;;;5028361;28;20086;-74
2023/06/18 12:39:39;;;;;;;6.57;5.18;;;;;;;;;;5032093;28;20021;-74
2023/06/18 12:42:08;;;;;;;6.43;4.93;;;;;;;;;;5016049;28;20044;-74
2023/06/18 12:44:34;;;;;;;6.35;5.10;;;;;;;;;;5021912;28;20482;-74
2023/06/18 12:46:59;;;;;;;5.95;5.20;;;;;;;;;;5032384;28;20038;-74
2023/06/18 12:49:25;;;;;;;6.53;5.07;;;;;;;;;;5031468;28;20044;-74
2023/06/18 12:51:53;;;;;;;7.18;5.30;;;;;;;;;;5029138;28;20025;-74
2023/06/18 12:54:21;;;;;;;8.52;4.88;;;;;;;;;;5034882;28;20104;-73
2023/06/18 12:56:53;;;;;;;7.80;5.00;;;;;;;;;;5019048;28;20025;-74
2023/06/18 12:59:19;;;;;;;7.10;5.23;;;;;;;;;;5032616;28;20064;-74
2023/06/18 13:01:46;;;;;;;6.25;4.88;;;;;;;;;;5015680;28;20025;-74
2023/06/18 13:04:12;;;;;;;7.18;4.90;;;;;;;;;;5022139;28;20470;-74
2023/06/18 13:06:38;;;;;;;7.70;4.90;;;;;;;;;;5032626;28;20025;-74
2023/06/18 13:09:04;;;;;;;6.72;4.90;;;;;;;;;;5015533;28;20033;-74
2023/06/18 13:11:30;;;;;;;6.47;4.47;;;;;;;;;;5032669;28;20064;-73
2023/06/18 13:13:55;;;;;;;6.55;5.00;;;;;;;;;;5033105;28;20049;-74
2023/06/18 13:16:21;;;;;;;5.22;4.40;;;;;;;;;;5031841;28;20025;-74
2023/06/18 13:18:46;;;;;;;5.68;4.65;;;;;;;;;;5032519;28;20037;-74
2023/06/18 13:21:12;;;;;;;7.07;5.03;;;;;;;;;;5031826;28;20021;-75
2023/06/18 13:23:37;;;;;;;6.55;4.40;;;;;;;;;;5032289;28;20389;-74
2023/06/18 13:26:03;;;;;;;7.55;4.85;;;;;;;;;;5020463;28;20034;-74
2023/06/18 13:28:29;;;;;;;6.90;4.43;;;;;;;;;;5032509;28;20025;-74
2023/06/18 13:30:54;;;;;;;7.20;4.93;;;;;;;;;;5019610;28;20040;-74
2023/06/18 13:33:20;;;;;;;6.80;4.88;;;;;;;;;;5032624;28;20017;-74
2023/06/18 13:35:45;;;;;;;6.32;5.13;;;;;;;;;;5014770;28;20022;-74
2023/06/18 13:38:11;;;;;;;6.70;4.97;;;;;;;;;;5030224;28;20454;-74
2023/06/18 13:40:36;;;;;;;7.35;5.25;;;;;;;;;;5030386;28;20057;-74
2023/06/18 13:43:02;;;;;;;6.47;5.15;;;;;;;;;;5028956;28;20025;-74
2023/06/18 13:45:28;;;;;;;5.45;4.60;;;;;;;;;;5023698;28;20071;-74
2023/06/18 13:47:53;;;;;;;6.68;5.05;;;;;;;;;;5019179;28;20121;-73
2023/06/18 13:50:19;;;;;;;6.10;4.63;;;;;;;;;;5017482;28;20112;-74
2023/06/18 13:52:44;;;;;;;6.75;5.20;;;;;;;;;;5032483;28;20113;-74
2023/06/18 13:55:10;;;;;;;7.55;5.03;;;;;;;;;;5017776;28;20037;-75
2023/06/18 13:57:36;;;;;;;7.90;5.22;;;;;;;;;;5013771;28;20036;-74
2023/06/18 14:00:02;;;;;;;7.15;5.28;;;;;;;;;;5027870;28;20030;-74
2023/06/18 14:02:28;;;;;;;5.53;4.82;;;;;;;;;;5014561;28;20032;-74
2023/06/18 14:04:54;;;;;;;6.50;5.65;;;;;;;;;;5032761;28;20025;-74
2023/06/18 14:07:19;;;;;;;6.10;5.47;;;;;;;;;;5018084;28;20026;-73
2023/06/18 14:09:46;;;;;;;6.43;5.60;;;;;;;;;;5035855;28;20032;-74
2023/06/18 14:12:12;;;;;;;7.30;6.03;;;;;;;;;;5018252;28;20389;-74
2023/06/18 14:14:38;;;;;;;6.45;5.10;;;;;;;;;;5034178;28;20492;-74
2023/06/18 14:17:09;;;;;;;6.57;5.85;;;;;;;;;;5018100;28;20022;-74
2023/06/18 14:19:35;;;;;;;7.18;5.68;;;;;;;;;;5036131;28;20393;-74
2023/06/18 14:22:00;;;;;;;8.23;5.22;;;;;;;;;;5035575;28;20029;-74
2023/06/18 14:24:25;;;;;;;7.38;4.97;;;;;;;;;;5016082;28;20029;-74
2023/06/18 14:26:52;;;;;;;6.82;5.50;;;;;;;;;;5035720;28;20112;-73
2023/06/18 14:29:18;;;;;;;6.10;5.40;;;;;;;;;;5016869;28;20022;-74
2023/06/18 14:31:43;;;;;;;7.88;5.75;;;;;;;;;;5035919;28;20028;-74
2023/06/18 14:34:13;;;;;;;8.77;6.05;;;;;;;;;;5033451;28;20022;-74
2023/06/18 14:36:39;;;;;;;7.28;5.38;;;;;;;;;;5035563;28;20386;-74
2023/06/18 14:39:05;;;;;;;7.07;5.70;;;;;;;;;;5034858;28;20022;-74
2023/06/18 14:41:31;;;;;;;7.93;5.70;;;;;;;;;;5033455;28;20405;-74
2023/06/18 14:43:56;;;;;;;6.40;5.50;;;;;;;;;;5033931;28;20044;-74